createdAt,value
2018-07-23T00:01:23.810Z,85.60
2018-07-23T00:03:51.424Z,85.80
2018-07-23T00:06:18.994Z,85.80
2018-07-23T00:08:46.567Z,85.90
2018-07-23T00:11:14.199Z,85.90
2018-07-23T00:13:41.779Z,85.90
2018-07-23T00:16:09.967Z,85.80
2018-07-23T00:18:37.583Z,85.80
2018-07-23T00:21:05.164Z,85.70
2018-07-23T00:23:32.753Z,85.80
2018-07-23T00:26:00.296Z,85.90
2018-07-23T00:28:27.842Z,85.80
2018-07-23T00:30:55.425Z,85.80
2018-07-23T00:33:22.978Z,85.90
2018-07-23T00:35:50.545Z,85.90
2018-07-23T00:38:18.124Z,85.80
2018-07-23T00:40:45.707Z,85.80
2018-07-23T00:43:13.260Z,85.80
2018-07-23T00:45:40.845Z,85.70
2018-07-23T00:48:08.406Z,85.80
2018-07-23T00:53:03.521Z,86.00
2018-07-23T00:55:31.085Z,86.00
2018-07-23T00:57:58.648Z,86.00
2018-07-23T01:00:26.204Z,85.90
2018-07-23T01:02:53.864Z,85.80
2018-07-23T01:05:21.435Z,85.80
2018-07-23T01:10:16.488Z,85.80
2018-07-23T01:12:44.064Z,85.70
2018-07-23T01:15:11.663Z,85.60
2018-07-23T01:20:06.764Z,85.60
2018-07-23T01:22:34.347Z,85.70
2018-07-23T01:25:01.952Z,85.70
2018-07-23T01:27:29.614Z,85.80
2018-07-23T01:29:57.190Z,85.80
2018-07-23T01:32:24.795Z,85.80
2018-07-23T01:34:52.391Z,85.80
2018-07-23T01:37:20.011Z,85.80
2018-07-23T01:39:47.542Z,85.60
2018-07-23T01:42:15.756Z,85.70
2018-07-23T01:44:43.313Z,85.70
2018-07-23T01:47:11.107Z,85.70
2018-07-23T01:49:38.722Z,85.60
2018-07-23T01:52:06.320Z,85.70
2018-07-23T01:54:34.391Z,85.70
2018-07-23T01:57:02.050Z,85.60
2018-07-23T01:59:29.676Z,85.60
2018-07-23T02:01:57.349Z,85.70
2018-07-23T02:04:24.982Z,85.70
2018-07-23T02:06:52.609Z,85.70
2018-07-23T02:09:20.805Z,85.70
2018-07-23T02:11:48.401Z,85.50
2018-07-23T02:14:16.034Z,85.50
2018-07-23T02:16:43.579Z,85.30
2018-07-23T02:19:11.146Z,85.20
2018-07-23T02:21:38.723Z,85.20
2018-07-23T02:24:06.325Z,85.00
2018-07-23T02:26:33.915Z,85.30
2018-07-23T02:29:01.642Z,85.30
2018-07-23T02:31:29.303Z,85.30
2018-07-23T02:33:56.928Z,85.20
2018-07-23T02:36:24.702Z,85.30
2018-07-23T02:41:21.097Z,85.40
2018-07-23T02:43:50.283Z,85.50
2018-07-23T02:46:17.839Z,85.50
2018-07-23T02:48:46.708Z,85.60
2018-07-23T02:51:17.168Z,85.50
2018-07-23T02:53:44.746Z,85.50
2018-07-23T02:56:12.377Z,85.50
2018-07-23T02:58:39.930Z,85.60
2018-07-23T03:01:08.528Z,85.60
2018-07-23T03:03:36.128Z,85.60
2018-07-23T03:06:03.671Z,85.50
2018-07-23T03:08:31.293Z,85.50
2018-07-23T03:10:58.889Z,85.60
2018-07-23T03:13:26.481Z,85.60
2018-07-23T03:15:54.048Z,85.60
2018-07-23T03:20:55.794Z,85.60
2018-07-23T03:23:23.979Z,85.50
2018-07-23T03:25:53.089Z,85.50
2018-07-23T03:28:27.562Z,85.50
2018-07-23T03:30:57.168Z,85.50
2018-07-23T03:33:26.504Z,85.60
2018-07-23T03:35:56.046Z,85.60
2018-07-23T03:38:24.247Z,85.60
2018-07-23T03:40:51.870Z,85.60
2018-07-23T03:43:23.668Z,85.60
2018-07-23T03:45:51.245Z,85.60
2018-07-23T03:48:18.815Z,85.60
2018-07-23T03:50:46.413Z,85.70
2018-07-23T03:53:13.955Z,85.70
2018-07-23T03:55:42.693Z,85.60
2018-07-23T03:58:10.268Z,85.60
2018-07-23T04:00:46.180Z,85.60
2018-07-23T04:03:16.801Z,85.60
2018-07-23T04:05:44.520Z,85.70
2018-07-23T04:08:12.062Z,85.70
2018-07-23T04:10:39.759Z,85.80
2018-07-23T04:13:07.493Z,85.80
2018-07-23T04:15:35.131Z,85.80
2018-07-23T04:18:03.636Z,85.80
2018-07-23T04:20:33.201Z,85.70
2018-07-23T04:23:00.786Z,85.70
2018-07-23T04:25:28.648Z,85.60
2018-07-23T04:27:59.235Z,85.50
2018-07-23T04:32:54.945Z,85.30
2018-07-23T04:35:22.527Z,85.50
2018-07-23T04:37:50.128Z,85.30
2018-07-23T04:40:17.733Z,85.20
2018-07-23T04:42:45.498Z,85.30
2018-07-23T04:45:13.079Z,85.50
2018-07-23T04:47:40.988Z,85.50
2018-07-23T04:50:08.692Z,85.40
2018-07-23T04:52:36.305Z,85.50
2018-07-23T04:55:03.933Z,85.50
2018-07-23T04:57:31.569Z,85.60
2018-07-23T04:59:59.235Z,85.50
2018-07-23T05:02:26.800Z,85.50
2018-07-23T05:04:54.412Z,85.60
2018-07-23T05:07:21.972Z,85.60
2018-07-23T05:09:49.536Z,85.60
2018-07-23T05:12:17.205Z,85.60
2018-07-23T05:14:44.776Z,85.50
2018-07-23T05:17:12.939Z,85.50
2018-07-23T05:19:40.481Z,85.60
2018-07-23T05:22:08.081Z,85.60
2018-07-23T05:24:35.706Z,85.50
2018-07-23T05:27:03.271Z,85.40
2018-07-23T05:29:30.895Z,85.50
2018-07-23T05:31:58.495Z,85.40
2018-07-23T05:34:26.066Z,85.30
2018-07-23T05:36:53.644Z,85.30
2018-07-23T05:39:21.261Z,85.30
2018-07-23T05:41:48.872Z,85.20
2018-07-23T05:44:16.486Z,85.20
2018-07-23T05:46:44.042Z,85.00
2018-07-23T05:49:11.634Z,84.90
2018-07-23T05:51:39.187Z,84.80
2018-07-23T05:54:07.024Z,84.70
2018-07-23T05:56:34.598Z,84.70
2018-07-23T05:59:02.766Z,84.60
2018-07-23T06:01:31.010Z,84.50
2018-07-23T06:03:58.604Z,84.40
2018-07-23T06:06:26.244Z,84.40
2018-07-23T06:08:53.816Z,84.30
2018-07-23T06:11:21.407Z,84.30
2018-07-23T06:13:48.968Z,84.30
2018-07-23T06:16:16.624Z,84.40
2018-07-23T06:18:44.324Z,84.50
2018-07-23T06:21:11.907Z,84.50
2018-07-23T06:23:39.547Z,84.50
2018-07-23T06:26:07.208Z,84.60
2018-07-23T06:28:34.766Z,84.60
2018-07-23T06:31:02.370Z,84.60
2018-07-23T06:33:29.980Z,84.70
2018-07-23T06:35:57.615Z,84.70
2018-07-23T06:38:25.252Z,84.50
2018-07-23T06:40:52.842Z,84.50
2018-07-23T06:43:20.579Z,84.50
2018-07-23T06:45:48.164Z,84.10
2018-07-23T06:48:15.770Z,83.80
2018-07-23T06:50:43.346Z,83.90
2018-07-23T06:53:11.018Z,83.60
2018-07-23T06:55:38.727Z,83.40
2018-07-23T06:58:06.298Z,83.30
2018-07-23T07:00:34.025Z,83.40
2018-07-23T07:03:01.524Z,83.30
2018-07-23T07:05:29.138Z,83.30
2018-07-23T07:07:56.675Z,83.20
2018-07-23T07:10:25.192Z,83.30
2018-07-23T07:12:52.758Z,83.30
2018-07-23T07:15:20.276Z,83.40
2018-07-23T07:17:48.626Z,83.40
2018-07-23T07:20:16.224Z,83.50
2018-07-23T07:22:43.797Z,83.20
2018-07-23T07:25:11.407Z,83.20
2018-07-23T07:27:38.990Z,83.00
2018-07-23T07:30:06.856Z,83.20
2018-07-23T07:32:34.413Z,83.20
2018-07-23T07:35:01.999Z,83.20
2018-07-23T07:37:29.540Z,83.10
2018-07-23T07:39:57.107Z,82.90
2018-07-23T07:42:27.096Z,82.80
2018-07-23T07:44:56.677Z,81.90
2018-07-23T07:47:24.826Z,81.60
2018-07-23T07:49:52.979Z,81.70
2018-07-23T07:52:21.162Z,82.00
2018-07-23T07:54:52.046Z,82.20
2018-07-23T07:57:21.662Z,82.10
2018-07-23T07:59:52.462Z,82.00
2018-07-23T08:02:21.102Z,82.00
2018-07-23T08:04:49.307Z,82.20
2018-07-23T08:07:20.161Z,82.10
2018-07-23T08:09:48.361Z,82.10
2018-07-23T08:12:16.586Z,81.90
2018-07-23T08:14:44.132Z,82.10
2018-07-23T08:17:15.040Z,81.50
2018-07-23T08:19:44.292Z,81.90
2018-07-23T08:22:13.069Z,80.20
2018-07-23T08:24:41.423Z,78.10
2018-07-23T08:27:11.567Z,79.90
2018-07-23T08:29:41.052Z,80.00
2018-07-23T08:32:13.738Z,80.00
2018-07-23T08:34:42.284Z,80.30
2018-07-23T08:37:10.889Z,80.40
2018-07-23T08:39:39.478Z,80.00
2018-07-23T08:42:07.835Z,79.90
2018-07-23T08:44:36.886Z,80.00
2018-07-23T08:47:04.575Z,79.50
2018-07-23T08:49:32.115Z,77.60
2018-07-23T08:51:59.679Z,76.30
2018-07-23T08:54:27.352Z,77.00
2018-07-23T08:56:54.885Z,76.60
2018-07-23T08:59:22.472Z,78.10
2018-07-23T09:01:50.034Z,78.40
2018-07-23T09:04:17.712Z,78.10
2018-07-23T09:06:45.283Z,76.10
2018-07-23T09:09:12.854Z,76.30
2018-07-23T09:11:40.797Z,76.00
2018-07-23T09:14:09.392Z,76.00
2018-07-23T09:16:37.005Z,74.80
2018-07-23T09:19:05.192Z,74.30
2018-07-23T09:21:32.868Z,74.20
2018-07-23T09:24:00.515Z,74.10
2018-07-23T09:26:28.150Z,73.50
2018-07-23T09:28:55.687Z,72.00
2018-07-23T09:31:23.299Z,71.40
2018-07-23T09:33:50.934Z,70.60
2018-07-23T09:36:18.525Z,72.60
2018-07-23T09:38:46.112Z,71.20
2018-07-23T09:41:13.734Z,70.30
2018-07-23T09:43:41.340Z,68.10
2018-07-23T09:46:08.972Z,69.10
2018-07-23T09:48:37.259Z,70.60
2018-07-23T09:53:32.367Z,72.30
2018-07-23T09:56:00.031Z,70.70
2018-07-23T09:58:27.684Z,72.20
2018-07-23T10:01:00.903Z,72.50
2018-07-23T10:03:28.559Z,72.10
2018-07-23T10:05:56.157Z,69.10
2018-07-23T10:08:23.724Z,70.50
2018-07-23T10:10:53.441Z,69.30
2018-07-23T10:13:21.026Z,71.00
2018-07-23T10:15:48.586Z,67.00
2018-07-23T10:18:16.859Z,66.30
2018-07-23T10:20:44.418Z,67.30
2018-07-23T10:23:12.026Z,68.40
2018-07-23T10:25:39.624Z,67.80
2018-07-23T10:28:07.220Z,68.80
2018-07-23T10:30:36.146Z,66.30
2018-07-23T10:33:04.015Z,67.60
2018-07-23T10:35:31.584Z,70.30
2018-07-23T10:37:59.230Z,67.90
2018-07-23T10:40:26.857Z,66.60
2018-07-23T10:42:54.419Z,62.90
2018-07-23T10:45:22.006Z,62.80
2018-07-23T10:47:49.618Z,61.60
2018-07-23T10:50:17.256Z,65.00
2018-07-23T10:52:45.562Z,67.10
2018-07-23T10:55:13.194Z,64.30
2018-07-23T10:57:40.789Z,65.80
2018-07-23T11:02:39.780Z,66.10
2018-07-23T11:05:10.076Z,64.10
2018-07-23T11:07:38.617Z,63.30
2018-07-23T11:10:06.893Z,60.50
2018-07-23T11:12:34.611Z,61.60
2018-07-23T11:15:02.343Z,61.00
2018-07-23T11:17:29.936Z,55.50
2018-07-23T11:19:57.566Z,60.60
2018-07-23T11:22:25.985Z,55.70
2018-07-23T11:24:53.729Z,55.30
2018-07-23T11:27:21.205Z,59.50
2018-07-23T11:29:48.797Z,55.60
2018-07-23T11:32:16.412Z,50.30
2018-07-23T11:34:44.007Z,44.50
2018-07-23T11:37:11.572Z,42.90
2018-07-23T11:39:40.165Z,38.30
2018-07-23T11:42:08.156Z,37.80
2018-07-23T11:44:35.773Z,34.50
2018-07-23T11:47:03.385Z,33.00
2018-07-23T11:49:31.001Z,33.40
2018-07-23T11:51:58.531Z,32.70
2018-07-23T11:54:27.130Z,31.80
2018-07-23T11:56:54.790Z,31.30
2018-07-23T11:59:22.335Z,30.20
2018-07-23T12:01:50.518Z,30.70
2018-07-23T12:04:18.203Z,28.80
2018-07-23T12:06:45.745Z,28.10
2018-07-23T12:09:13.324Z,29.80
2018-07-23T12:11:40.931Z,29.30
2018-07-23T12:14:08.510Z,26.00
2018-07-23T12:16:36.672Z,25.10
2018-07-23T12:19:04.329Z,28.40
2018-07-23T12:21:31.925Z,28.70
2018-07-23T12:23:59.545Z,30.50
2018-07-23T12:26:27.191Z,30.70
2018-07-23T12:28:54.831Z,31.70
2018-07-23T12:31:22.452Z,29.40
2018-07-23T12:33:50.095Z,31.20
2018-07-23T12:36:18.493Z,29.70
2018-07-23T12:38:46.961Z,33.30
2018-07-23T12:41:14.534Z,33.50
2018-07-23T12:43:42.686Z,32.90
2018-07-23T12:46:10.295Z,33.00
2018-07-23T12:48:37.873Z,30.40
2018-07-23T12:51:06.075Z,32.20
2018-07-23T12:53:33.664Z,33.30
2018-07-23T12:56:01.314Z,34.40
2018-07-23T12:58:28.927Z,31.60
2018-07-23T13:00:56.625Z,33.90
2018-07-23T13:03:24.207Z,34.30
2018-07-23T13:05:52.474Z,34.20
2018-07-23T13:08:20.086Z,33.90
2018-07-23T13:10:47.715Z,33.90
2018-07-23T13:13:15.301Z,34.80
2018-07-23T13:15:42.927Z,35.00
2018-07-23T13:20:38.007Z,35.10
2018-07-23T13:23:05.599Z,33.60
2018-07-23T13:25:33.284Z,32.60
2018-07-23T13:28:00.821Z,34.20
2018-07-23T13:30:28.434Z,34.00
2018-07-23T13:32:56.086Z,32.90
2018-07-23T13:35:23.696Z,32.60
2018-07-23T13:37:51.307Z,32.70
2018-07-23T13:40:18.952Z,36.30
2018-07-23T13:42:46.567Z,34.70
2018-07-23T13:45:14.160Z,36.30
2018-07-23T13:47:41.737Z,34.90
2018-07-23T13:50:09.353Z,33.90
2018-07-23T13:52:36.962Z,35.60
2018-07-23T13:55:04.696Z,36.70
2018-07-23T13:57:33.130Z,37.10
2018-07-23T14:00:00.758Z,39.80
2018-07-23T14:02:28.302Z,39.20
2018-07-23T14:04:56.822Z,38.40
2018-07-23T14:07:24.501Z,38.20
2018-07-23T14:09:52.771Z,38.60
2018-07-23T14:12:20.975Z,38.30
2018-07-23T14:14:48.619Z,40.50
2018-07-23T14:17:16.791Z,39.90
2018-07-23T14:19:44.339Z,41.80
2018-07-23T14:22:11.906Z,39.20
2018-07-23T14:24:39.488Z,41.70
2018-07-23T14:27:07.123Z,42.20
2018-07-23T14:29:34.802Z,42.70
2018-07-23T14:32:02.388Z,43.00
2018-07-23T14:34:30.004Z,41.30
2018-07-23T14:36:57.585Z,44.70
2018-07-23T14:39:25.137Z,46.10
2018-07-23T14:41:53.626Z,47.80
2018-07-23T14:44:21.237Z,46.40
2018-07-23T14:46:48.824Z,41.90
2018-07-23T14:49:16.376Z,42.80
2018-07-23T14:51:44.038Z,41.60
2018-07-23T14:54:11.605Z,44.30
2018-07-23T14:56:39.236Z,47.10
2018-07-23T14:59:07.787Z,48.00
2018-07-23T15:01:36.314Z,45.10
2018-07-23T15:04:04.635Z,46.40
2018-07-23T15:06:32.180Z,49.90
2018-07-23T15:08:59.821Z,52.10
2018-07-23T15:11:27.412Z,53.20
2018-07-23T15:13:55.066Z,57.60
2018-07-23T15:16:22.621Z,59.80
2018-07-23T15:18:50.176Z,61.60
2018-07-23T15:21:17.781Z,63.80
2018-07-23T15:23:45.392Z,64.00
2018-07-23T15:26:13.011Z,64.70
2018-07-23T15:28:40.607Z,65.20
2018-07-23T15:31:08.230Z,66.60
2018-07-23T15:33:35.834Z,65.90
2018-07-23T15:36:03.406Z,66.40
2018-07-23T15:38:31.010Z,68.70
2018-07-23T15:40:59.258Z,69.40
2018-07-23T15:43:26.792Z,68.60
2018-07-23T15:45:54.413Z,68.10
2018-07-23T15:48:22.628Z,68.10
2018-07-23T15:50:50.638Z,71.60
2018-07-23T15:53:18.283Z,72.50
2018-07-23T15:55:45.848Z,72.70
2018-07-23T15:58:13.428Z,73.60
2018-07-23T16:00:41.030Z,72.10
2018-07-23T16:03:08.609Z,71.90
2018-07-23T16:05:36.272Z,72.30
2018-07-23T16:08:03.970Z,69.70
2018-07-23T16:10:31.626Z,69.90
2018-07-23T16:12:59.209Z,71.00
2018-07-23T16:15:26.833Z,70.70
2018-07-23T16:17:54.457Z,71.70
2018-07-23T16:20:22.139Z,71.10
2018-07-23T16:22:49.758Z,71.60
2018-07-23T16:25:17.378Z,71.90
2018-07-23T16:27:45.031Z,72.40
2018-07-23T16:30:12.656Z,71.30
2018-07-23T16:32:40.322Z,69.90
2018-07-23T16:35:09.762Z,70.20
2018-07-23T16:37:37.595Z,70.30
2018-07-23T16:40:05.695Z,70.10
2018-07-23T16:42:34.188Z,70.40
2018-07-23T16:45:01.804Z,71.50
2018-07-23T16:47:29.377Z,71.40
2018-07-23T16:49:57.010Z,71.40
2018-07-23T16:52:24.605Z,71.50
2018-07-23T16:54:52.183Z,71.70
2018-07-23T16:57:19.850Z,71.70
2018-07-23T16:59:47.533Z,71.60
2018-07-23T17:02:15.063Z,70.70
2018-07-23T17:04:42.695Z,71.70
2018-07-23T17:07:12.308Z,70.80
2018-07-23T17:09:39.876Z,69.80
2018-07-23T17:12:07.945Z,70.00
2018-07-23T17:14:35.562Z,71.10
2018-07-23T17:17:03.159Z,72.50
2018-07-23T17:19:30.732Z,72.80
2018-07-23T17:21:58.360Z,73.30
2018-07-23T17:24:27.824Z,73.40
2018-07-23T17:26:55.549Z,72.90
2018-07-23T17:29:23.224Z,73.80
2018-07-23T17:31:51.696Z,73.10
2018-07-23T17:34:19.305Z,73.90
2018-07-23T17:36:46.884Z,74.10
2018-07-23T17:39:14.486Z,74.30
2018-07-23T17:41:42.298Z,74.00
2018-07-23T17:44:09.896Z,73.30
2018-07-23T17:46:37.534Z,73.30
2018-07-23T17:49:05.272Z,73.00
2018-07-23T17:54:00.395Z,72.30
2018-07-23T17:56:28.062Z,72.10
2018-07-23T18:01:23.726Z,71.50
2018-07-23T18:03:51.340Z,71.40
2018-07-23T18:06:18.949Z,71.20
2018-07-23T18:08:46.818Z,71.10
2018-07-23T18:11:14.525Z,71.30
2018-07-23T18:13:42.457Z,71.50
2018-07-23T18:16:10.181Z,71.50
2018-07-23T18:18:37.837Z,71.30
2018-07-23T18:23:33.106Z,71.00
2018-07-23T18:26:00.722Z,71.70
2018-07-23T18:28:28.384Z,72.90
2018-07-23T18:30:56.024Z,73.00
2018-07-23T18:33:23.717Z,73.60
2018-07-23T18:35:51.380Z,74.30
2018-07-23T18:38:20.864Z,74.60
2018-07-23T18:40:48.376Z,74.00
2018-07-23T18:43:15.998Z,73.30
2018-07-23T18:45:43.645Z,73.10
2018-07-23T18:49:28.139Z,73.40
2018-07-23T18:51:56.182Z,73.70
2018-07-23T18:54:26.009Z,73.70
2018-07-23T18:56:54.968Z,74.30
2018-07-23T18:59:22.651Z,74.60
2018-07-23T19:01:51.360Z,74.20
2018-07-23T19:04:19.444Z,74.50
2018-07-23T19:06:47.556Z,74.80
2018-07-23T19:09:19.442Z,74.90
2018-07-23T19:11:48.434Z,74.60
2018-07-23T19:16:44.482Z,74.60
2018-07-23T19:19:12.315Z,75.10
2018-07-23T19:21:40.088Z,75.10
2018-07-23T19:24:08.014Z,75.20
2018-07-23T19:26:35.623Z,75.40
2018-07-23T19:29:03.344Z,75.50
2018-07-23T19:31:30.961Z,75.50
2018-07-23T19:33:59.655Z,75.40
2018-07-23T19:36:27.798Z,75.40
2018-07-23T19:38:56.006Z,75.90
2018-07-23T19:41:23.991Z,75.90
2018-07-23T19:43:51.765Z,75.90
2018-07-23T19:46:19.542Z,76.10
2018-07-23T19:48:47.228Z,76.40
2018-07-23T19:51:14.984Z,76.80
2018-07-23T19:53:42.784Z,76.70
2018-07-23T19:56:10.918Z,76.50
2018-07-23T19:58:38.877Z,76.40
2018-07-23T20:01:06.520Z,76.30
2018-07-23T20:03:34.279Z,76.00
2018-07-23T20:06:01.872Z,75.60
2018-07-23T20:08:29.745Z,75.30
2018-07-23T20:10:57.467Z,76.00
2018-07-23T20:13:25.465Z,77.00
2018-07-23T20:15:53.679Z,77.60
2018-07-23T20:18:21.341Z,77.80
2018-07-23T20:20:49.013Z,77.70
2018-07-23T20:23:16.674Z,77.40
2018-07-23T20:25:44.374Z,77.70
2018-07-23T20:28:11.975Z,77.70
2018-07-23T20:30:39.712Z,77.90
2018-07-23T20:33:07.443Z,77.90
2018-07-23T20:35:35.919Z,77.70
2018-07-23T20:38:03.625Z,77.70
2018-07-23T20:40:31.349Z,77.70
2018-07-23T20:42:58.977Z,77.80
2018-07-23T20:45:27.011Z,77.80
2018-07-23T20:47:54.698Z,77.80
2018-07-23T20:50:22.307Z,77.80
2018-07-23T20:52:49.939Z,77.70
2018-07-23T20:55:17.629Z,77.70
2018-07-23T20:57:45.444Z,77.80
2018-07-23T21:00:13.137Z,77.40
2018-07-23T21:02:40.756Z,77.40
2018-07-23T21:05:08.416Z,77.40
2018-07-23T21:07:36.095Z,77.40
2018-07-23T21:12:31.761Z,77.30
2018-07-23T21:14:59.365Z,77.30
2018-07-23T21:17:26.958Z,77.40
2018-07-23T21:19:54.578Z,77.50
2018-07-23T21:22:22.167Z,77.60
2018-07-23T21:24:49.767Z,77.80
2018-07-23T21:27:17.356Z,78.00
2018-07-23T21:29:44.904Z,78.20
2018-07-23T21:32:12.517Z,78.40
2018-07-23T21:34:40.190Z,78.40
2018-07-23T21:37:07.771Z,78.30
2018-07-23T21:39:35.353Z,78.10
2018-07-23T21:42:03.014Z,77.80
2018-07-23T21:44:30.617Z,77.70
2018-07-23T21:49:25.857Z,77.90
2018-07-23T21:51:53.457Z,77.90
2018-07-23T21:54:21.045Z,77.80
2018-07-23T21:56:48.708Z,77.70
2018-07-23T21:59:16.325Z,77.80
2018-07-23T22:01:44.039Z,77.80
2018-07-23T22:04:11.647Z,77.90
2018-07-23T22:06:39.242Z,78.20
2018-07-23T22:09:07.887Z,78.30
2018-07-23T22:11:35.626Z,78.30
2018-07-23T22:14:04.412Z,78.40
2018-07-23T22:16:31.974Z,78.40
2018-07-23T22:19:00.410Z,78.50
2018-07-23T22:21:28.024Z,78.50
2018-07-23T22:23:55.610Z,78.30
2018-07-23T22:26:23.214Z,78.30
2018-07-23T22:28:50.781Z,78.30
2018-07-23T22:31:18.351Z,78.80
2018-07-23T22:33:45.917Z,79.20
2018-07-23T22:36:14.204Z,79.10
2018-07-23T22:38:41.752Z,78.90
2018-07-23T22:41:09.362Z,78.70
2018-07-23T22:43:36.918Z,78.70
2018-07-23T22:46:04.561Z,78.50
2018-07-23T22:48:32.176Z,78.30
2018-07-23T22:51:00.555Z,78.20
2018-07-23T22:53:28.088Z,78.20
2018-07-23T22:55:55.727Z,78.20
2018-07-23T22:58:23.318Z,78.30
2018-07-23T23:00:50.857Z,78.50
2018-07-23T23:03:19.322Z,78.60
2018-07-23T23:05:46.884Z,78.80
2018-07-23T23:08:14.433Z,78.70
2018-07-23T23:10:42.075Z,78.50
2018-07-23T23:13:09.664Z,78.50
2018-07-23T23:15:37.225Z,78.60
2018-07-23T23:18:04.761Z,78.50
2018-07-23T23:20:33.058Z,78.40
2018-07-23T23:23:00.788Z,78.20
2018-07-23T23:25:28.372Z,78.00
2018-07-23T23:27:55.929Z,77.90
2018-07-23T23:30:23.602Z,77.80
2018-07-23T23:32:52.056Z,77.70
2018-07-23T23:35:19.730Z,77.80
2018-07-23T23:37:47.309Z,78.10
2018-07-23T23:40:15.132Z,78.40
2018-07-23T23:42:43.600Z,78.50
2018-07-23T23:45:11.990Z,78.80
2018-07-23T23:47:39.575Z,79.10
2018-07-23T23:50:07.707Z,79.40
2018-07-23T23:55:02.851Z,79.50
2018-07-23T23:57:30.739Z,79.40
2018-07-23T23:59:58.317Z,79.30
